sensor_id;sensor_type;location;lat;lon;timestamp;P1;durP1;ratioP1;P2;durP2;ratioP2
34060;SDS011;20336;-33.424;-70.638;2023-05-10T00:00:37;17.60;;;8.63;;
34060;SDS011;20336;-33.424;-70.638;2023-05-10T00:03:04;16.02;;;8.55;;
34060;SDS011;20336;-33.424;-70.638;2023-05-10T00:05:31;17.20;;;8.50;;
34060;SDS011;20336;-33.424;-70.638;2023-05-10T00:07:58;18.20;;;8.60;;
34060;SDS011;20336;-33.424;-70.638;2023-05-10T00:10:25;12.93;;;6.93;;
34060;SDS011;20336;-33.424;-70.638;2023-05-10T00:12:52;20.02;;;8.88;;
34060;SDS011;20336;-33.424;-70.638;2023-05-10T00:15:19;18.25;;;8.55;;
34060;SDS011;20336;-33.424;-70.638;2023-05-10T00:17:46;13.77;;;7.95;;
34060;SDS011;20336;-33.424;-70.638;2023-05-10T00:20:13;18.15;;;7.40;;
34060;SDS011;20336;-33.424;-70.638;2023-05-10T00:22:40;13.93;;;6.55;;
34060;SDS011;20336;-33.424;-70.638;2023-05-10T00:25:07;10.73;;;6.40;;
34060;SDS011;20336;-33.424;-70.638;2023-05-10T00:27:34;11.70;;;6.18;;
34060;SDS011;20336;-33.424;-70.638;2023-05-10T00:30:01;10.57;;;5.40;;
34060;SDS011;20336;-33.424;-70.638;2023-05-10T00:32:28;10.52;;;5.30;;
34060;SDS011;20336;-33.424;-70.638;2023-05-10T00:34:55;9.48;;;5.07;;
34060;SDS011;20336;-33.424;-70.638;2023-05-10T00:37:22;9.20;;;4.60;;
34060;SDS011;20336;-33.424;-70.638;2023-05-10T00:39:49;8.77;;;4.90;;
34060;SDS011;20336;-33.424;-70.638;2023-05-10T00:42:16;7.50;;;4.63;;
34060;SDS011;20336;-33.424;-70.638;2023-05-10T00:44:42;7.22;;;4.15;;
34060;SDS011;20336;-33.424;-70.638;2023-05-10T00:47:09;11.30;;;4.75;;
34060;SDS011;20336;-33.424;-70.638;2023-05-10T00:49:37;9.52;;;4.90;;
34060;SDS011;20336;-33.424;-70.638;2023-05-10T00:52:04;7.35;;;4.45;;
34060;SDS011;20336;-33.424;-70.638;2023-05-10T00:54:31;10.35;;;5.05;;
34060;SDS011;20336;-33.424;-70.638;2023-05-10T00:56:58;9.10;;;4.28;;
34060;SDS011;20336;-33.424;-70.638;2023-05-10T00:59:25;9.23;;;4.88;;
34060;SDS011;20336;-33.424;-70.638;2023-05-10T01:01:51;10.07;;;4.85;;
34060;SDS011;20336;-33.424;-70.638;2023-05-10T01:04:18;10.45;;;4.75;;
34060;SDS011;20336;-33.424;-70.638;2023-05-10T01:06:51;11.85;;;4.95;;
34060;SDS011;20336;-33.424;-70.638;2023-05-10T01:09:18;8.60;;;4.38;;
34060;SDS011;20336;-33.424;-70.638;2023-05-10T01:11:45;11.07;;;4.22;;
34060;SDS011;20336;-33.424;-70.638;2023-05-10T01:14:12;7.53;;;4.20;;
34060;SDS011;20336;-33.424;-70.638;2023-05-10T01:16:40;7.60;;;4.25;;
34060;SDS011;20336;-33.424;-70.638;2023-05-10T01:19:11;6.95;;;3.80;;
34060;SDS011;20336;-33.424;-70.638;2023-05-10T01:21:49;8.98;;;4.20;;
34060;SDS011;20336;-33.424;-70.638;2023-05-10T01:34:53;9.07;;;4.55;;
34060;SDS011;20336;-33.424;-70.638;2023-05-10T01:37:21;9.00;;;3.97;;
34060;SDS011;20336;-33.424;-70.638;2023-05-10T01:40:00;9.00;;;4.68;;
34060;SDS011;20336;-33.424;-70.638;2023-05-10T01:42:31;8.80;;;4.10;;
34060;SDS011;20336;-33.424;-70.638;2023-05-10T01:47:46;8.55;;;4.30;;
34060;SDS011;20336;-33.424;-70.638;2023-05-10T01:50:17;8.00;;;4.20;;
34060;SDS011;20336;-33.424;-70.638;2023-05-10T01:52:47;8.00;;;4.13;;
34060;SDS011;20336;-33.424;-70.638;2023-05-10T01:55:17;8.05;;;4.00;;
34060;SDS011;20336;-33.424;-70.638;2023-05-10T01:57:45;12.57;;;4.70;;
34060;SDS011;20336;-33.424;-70.638;2023-05-10T02:00:13;9.73;;;4.18;;
34060;SDS011;20336;-33.424;-70.638;2023-05-10T02:02:42;13.55;;;5.97;;
34060;SDS011;20336;-33.424;-70.638;2023-05-10T02:05:12;11.35;;;5.63;;
34060;SDS011;20336;-33.424;-70.638;2023-05-10T02:07:39;17.33;;;6.25;;
34060;SDS011;20336;-33.424;-70.638;2023-05-10T02:10:07;14.77;;;5.75;;
34060;SDS011;20336;-33.424;-70.638;2023-05-10T02:12:36;11.07;;;5.53;;
34060;SDS011;20336;-33.424;-70.638;2023-05-10T02:15:04;10.93;;;5.85;;
34060;SDS011;20336;-33.424;-70.638;2023-05-10T02:17:32;12.20;;;5.80;;
34060;SDS011;20336;-33.424;-70.638;2023-05-10T02:19:59;11.40;;;5.97;;
34060;SDS011;20336;-33.424;-70.638;2023-05-10T02:22:27;11.02;;;5.22;;
34060;SDS011;20336;-33.424;-70.638;2023-05-10T02:24:54;11.00;;;4.85;;
34060;SDS011;20336;-33.424;-70.638;2023-05-10T02:27:22;9.38;;;5.18;;
34060;SDS011;20336;-33.424;-70.638;2023-05-10T02:29:50;14.23;;;5.72;;
34060;SDS011;20336;-33.424;-70.638;2023-05-10T02:32:18;11.60;;;5.80;;
34060;SDS011;20336;-33.424;-70.638;2023-05-10T02:34:45;13.60;;;5.38;;
34060;SDS011;20336;-33.424;-70.638;2023-05-10T02:37:18;11.18;;;5.75;;
34060;SDS011;20336;-33.424;-70.638;2023-05-10T02:39:49;12.52;;;5.13;;
34060;SDS011;20336;-33.424;-70.638;2023-05-10T02:42:17;12.63;;;4.72;;
34060;SDS011;20336;-33.424;-70.638;2023-05-10T02:44:47;7.82;;;4.85;;
34060;SDS011;20336;-33.424;-70.638;2023-05-10T02:47:15;8.82;;;4.97;;
34060;SDS011;20336;-33.424;-70.638;2023-05-10T02:49:43;11.68;;;5.43;;
34060;SDS011;20336;-33.424;-70.638;2023-05-10T02:52:10;12.60;;;5.90;;
34060;SDS011;20336;-33.424;-70.638;2023-05-10T02:54:44;12.45;;;5.22;;
34060;SDS011;20336;-33.424;-70.638;2023-05-10T02:57:14;15.43;;;5.45;;
34060;SDS011;20336;-33.424;-70.638;2023-05-10T02:59:43;11.20;;;5.10;;
34060;SDS011;20336;-33.424;-70.638;2023-05-10T03:02:12;8.82;;;5.03;;
34060;SDS011;20336;-33.424;-70.638;2023-05-10T03:04:39;12.63;;;5.30;;
34060;SDS011;20336;-33.424;-70.638;2023-05-10T03:07:06;9.40;;;5.70;;
34060;SDS011;20336;-33.424;-70.638;2023-05-10T03:09:33;14.30;;;5.65;;
34060;SDS011;20336;-33.424;-70.638;2023-05-10T03:19:58;13.70;;;5.93;;
34060;SDS011;20336;-33.424;-70.638;2023-05-10T03:22:26;11.93;;;5.82;;
34060;SDS011;20336;-33.424;-70.638;2023-05-10T03:24:55;13.20;;;5.78;;
34060;SDS011;20336;-33.424;-70.638;2023-05-10T03:27:26;9.38;;;5.72;;
34060;SDS011;20336;-33.424;-70.638;2023-05-10T03:29:53;17.38;;;7.50;;
34060;SDS011;20336;-33.424;-70.638;2023-05-10T03:32:21;18.70;;;7.95;;
34060;SDS011;20336;-33.424;-70.638;2023-05-10T03:34:48;17.75;;;7.68;;
34060;SDS011;20336;-33.424;-70.638;2023-05-10T03:37:15;18.92;;;9.80;;
34060;SDS011;20336;-33.424;-70.638;2023-05-10T03:39:42;18.35;;;9.20;;
34060;SDS011;20336;-33.424;-70.638;2023-05-10T03:42:09;17.98;;;9.20;;
34060;SDS011;20336;-33.424;-70.638;2023-05-10T03:44:38;17.73;;;9.18;;
34060;SDS011;20336;-33.424;-70.638;2023-05-10T03:47:05;19.00;;;9.68;;
34060;SDS011;20336;-33.424;-70.638;2023-05-10T03:49:32;23.20;;;10.23;;
34060;SDS011;20336;-33.424;-70.638;2023-05-10T03:51:59;25.48;;;10.82;;
34060;SDS011;20336;-33.424;-70.638;2023-05-10T03:54:26;25.30;;;10.32;;
34060;SDS011;20336;-33.424;-70.638;2023-05-10T03:56:53;24.42;;;11.27;;
34060;SDS011;20336;-33.424;-70.638;2023-05-10T03:59:20;31.33;;;12.50;;
34060;SDS011;20336;-33.424;-70.638;2023-05-10T04:01:47;30.03;;;12.10;;
34060;SDS011;20336;-33.424;-70.638;2023-05-10T04:04:13;21.03;;;10.33;;
34060;SDS011;20336;-33.424;-70.638;2023-05-10T04:06:41;25.05;;;11.15;;
34060;SDS011;20336;-33.424;-70.638;2023-05-10T04:09:08;25.77;;;13.30;;
34060;SDS011;20336;-33.424;-70.638;2023-05-10T04:11:35;40.03;;;14.77;;
34060;SDS011;20336;-33.424;-70.638;2023-05-10T04:14:02;33.60;;;13.75;;
34060;SDS011;20336;-33.424;-70.638;2023-05-10T04:16:29;37.33;;;15.43;;
34060;SDS011;20336;-33.424;-70.638;2023-05-10T04:18:56;39.28;;;16.13;;
34060;SDS011;20336;-33.424;-70.638;2023-05-10T04:21:23;36.97;;;14.48;;
34060;SDS011;20336;-33.424;-70.638;2023-05-10T04:23:49;39.97;;;16.63;;
34060;SDS011;20336;-33.424;-70.638;2023-05-10T04:26:16;44.28;;;17.80;;
34060;SDS011;20336;-33.424;-70.638;2023-05-10T04:28:43;41.75;;;17.38;;
34060;SDS011;20336;-33.424;-70.638;2023-05-10T04:31:10;43.60;;;16.38;;
34060;SDS011;20336;-33.424;-70.638;2023-05-10T04:33:37;32.70;;;15.68;;
34060;SDS011;20336;-33.424;-70.638;2023-05-10T04:36:04;40.50;;;17.33;;
34060;SDS011;20336;-33.424;-70.638;2023-05-10T04:38:31;47.38;;;17.83;;
34060;SDS011;20336;-33.424;-70.638;2023-05-10T04:41:05;45.70;;;15.70;;
34060;SDS011;20336;-33.424;-70.638;2023-05-10T04:43:32;29.83;;;14.13;;
34060;SDS011;20336;-33.424;-70.638;2023-05-10T04:45:59;34.30;;;14.75;;
34060;SDS011;20336;-33.424;-70.638;2023-05-10T04:48:25;37.53;;;15.70;;
34060;SDS011;20336;-33.424;-70.638;2023-05-10T04:50:52;36.42;;;14.80;;
34060;SDS011;20336;-33.424;-70.638;2023-05-10T04:53:19;46.92;;;16.02;;
34060;SDS011;20336;-33.424;-70.638;2023-05-10T04:55:46;39.28;;;14.73;;
34060;SDS011;20336;-33.424;-70.638;2023-05-10T04:58:14;34.75;;;14.30;;
34060;SDS011;20336;-33.424;-70.638;2023-05-10T05:00:40;36.90;;;15.63;;
34060;SDS011;20336;-33.424;-70.638;2023-05-10T05:03:07;41.23;;;16.00;;
34060;SDS011;20336;-33.424;-70.638;2023-05-10T05:05:35;37.00;;;15.57;;
34060;SDS011;20336;-33.424;-70.638;2023-05-10T05:08:02;38.00;;;16.38;;
34060;SDS011;20336;-33.424;-70.638;2023-05-10T05:10:29;38.25;;;15.32;;
34060;SDS011;20336;-33.424;-70.638;2023-05-10T05:12:56;37.55;;;15.18;;
34060;SDS011;20336;-33.424;-70.638;2023-05-10T05:15:22;39.38;;;14.23;;
34060;SDS011;20336;-33.424;-70.638;2023-05-10T05:17:49;31.88;;;14.18;;
34060;SDS011;20336;-33.424;-70.638;2023-05-10T05:20:16;36.03;;;15.37;;
34060;SDS011;20336;-33.424;-70.638;2023-05-10T05:22:44;35.40;;;15.63;;
34060;SDS011;20336;-33.424;-70.638;2023-05-10T05:25:11;43.30;;;16.43;;
34060;SDS011;20336;-33.424;-70.638;2023-05-10T05:27:38;43.23;;;17.33;;
34060;SDS011;20336;-33.424;-70.638;2023-05-10T05:30:05;34.90;;;15.33;;
34060;SDS011;20336;-33.424;-70.638;2023-05-10T05:32:32;44.37;;;16.97;;
34060;SDS011;20336;-33.424;-70.638;2023-05-10T05:34:59;44.50;;;17.83;;
34060;SDS011;20336;-33.424;-70.638;2023-05-10T05:37:26;44.27;;;17.20;;
34060;SDS011;20336;-33.424;-70.638;2023-05-10T05:39:53;47.47;;;17.10;;
34060;SDS011;20336;-33.424;-70.638;2023-05-10T05:42:20;40.88;;;16.42;;
34060;SDS011;20336;-33.424;-70.638;2023-05-10T05:44:47;43.63;;;17.00;;
34060;SDS011;20336;-33.424;-70.638;2023-05-10T05:47:14;37.03;;;16.37;;
34060;SDS011;20336;-33.424;-70.638;2023-05-10T05:49:40;39.22;;;16.83;;
34060;SDS011;20336;-33.424;-70.638;2023-05-10T05:52:07;39.33;;;16.88;;
34060;SDS011;20336;-33.424;-70.638;2023-05-10T05:54:34;42.03;;;15.53;;
34060;SDS011;20336;-33.424;-70.638;2023-05-10T05:57:01;39.97;;;15.63;;
34060;SDS011;20336;-33.424;-70.638;2023-05-10T05:59:28;41.27;;;16.37;;
34060;SDS011;20336;-33.424;-70.638;2023-05-10T06:01:55;34.70;;;15.07;;
34060;SDS011;20336;-33.424;-70.638;2023-05-10T06:04:22;36.93;;;16.47;;
34060;SDS011;20336;-33.424;-70.638;2023-05-10T06:06:48;37.17;;;16.27;;
34060;SDS011;20336;-33.424;-70.638;2023-05-10T06:09:15;39.80;;;16.47;;
34060;SDS011;20336;-33.424;-70.638;2023-05-10T06:11:42;41.53;;;16.67;;
34060;SDS011;20336;-33.424;-70.638;2023-05-10T06:14:09;36.70;;;16.13;;
34060;SDS011;20336;-33.424;-70.638;2023-05-10T06:16:36;36.00;;;13.87;;
34060;SDS011;20336;-33.424;-70.638;2023-05-10T06:19:03;33.37;;;13.60;;
34060;SDS011;20336;-33.424;-70.638;2023-05-10T06:21:30;26.43;;;11.23;;
34060;SDS011;20336;-33.424;-70.638;2023-05-10T06:23:59;29.97;;;12.27;;
34060;SDS011;20336;-33.424;-70.638;2023-05-10T06:26:26;40.00;;;12.53;;
34060;SDS011;20336;-33.424;-70.638;2023-05-10T06:28:53;30.33;;;13.30;;
34060;SDS011;20336;-33.424;-70.638;2023-05-10T06:31:19;33.37;;;13.73;;
34060;SDS011;20336;-33.424;-70.638;2023-05-10T06:33:46;35.03;;;13.60;;
34060;SDS011;20336;-33.424;-70.638;2023-05-10T06:36:13;32.03;;;13.93;;
34060;SDS011;20336;-33.424;-70.638;2023-05-10T06:38:40;40.90;;;13.83;;
34060;SDS011;20336;-33.424;-70.638;2023-05-10T06:41:07;38.97;;;15.27;;
34060;SDS011;20336;-33.424;-70.638;2023-05-10T06:43:34;39.60;;;15.53;;
34060;SDS011;20336;-33.424;-70.638;2023-05-10T06:46:02;32.10;;;13.67;;
34060;SDS011;20336;-33.424;-70.638;2023-05-10T06:48:29;38.13;;;15.37;;
34060;SDS011;20336;-33.424;-70.638;2023-05-10T06:50:56;33.40;;;13.73;;
34060;SDS011;20336;-33.424;-70.638;2023-05-10T06:53:22;36.40;;;14.20;;
34060;SDS011;20336;-33.424;-70.638;2023-05-10T06:55:49;37.13;;;13.73;;
34060;SDS011;20336;-33.424;-70.638;2023-05-10T06:58:16;34.97;;;13.80;;
34060;SDS011;20336;-33.424;-70.638;2023-05-10T07:00:43;33.10;;;13.97;;
34060;SDS011;20336;-33.424;-70.638;2023-05-10T07:03:12;32.87;;;13.57;;
34060;SDS011;20336;-33.424;-70.638;2023-05-10T07:05:38;33.47;;;14.50;;
34060;SDS011;20336;-33.424;-70.638;2023-05-10T07:08:05;37.77;;;14.40;;
34060;SDS011;20336;-33.424;-70.638;2023-05-10T07:10:32;31.67;;;14.07;;
34060;SDS011;20336;-33.424;-70.638;2023-05-10T07:12:59;36.77;;;14.93;;
34060;SDS011;20336;-33.424;-70.638;2023-05-10T07:15:26;33.30;;;13.90;;
34060;SDS011;20336;-33.424;-70.638;2023-05-10T07:17:53;34.07;;;15.37;;
34060;SDS011;20336;-33.424;-70.638;2023-05-10T07:20:20;30.13;;;13.47;;
34060;SDS011;20336;-33.424;-70.638;2023-05-10T07:22:47;37.13;;;14.23;;
34060;SDS011;20336;-33.424;-70.638;2023-05-10T07:25:14;41.30;;;14.97;;
34060;SDS011;20336;-33.424;-70.638;2023-05-10T07:27:41;34.27;;;14.37;;
34060;SDS011;20336;-33.424;-70.638;2023-05-10T07:30:08;32.03;;;14.00;;
34060;SDS011;20336;-33.424;-70.638;2023-05-10T07:32:35;37.13;;;16.17;;
34060;SDS011;20336;-33.424;-70.638;2023-05-10T07:35:02;48.00;;;17.70;;
34060;SDS011;20336;-33.424;-70.638;2023-05-10T07:37:29;37.37;;;16.33;;
34060;SDS011;20336;-33.424;-70.638;2023-05-10T07:39:55;39.00;;;15.17;;
34060;SDS011;20336;-33.424;-70.638;2023-05-10T07:42:22;38.97;;;15.63;;
34060;SDS011;20336;-33.424;-70.638;2023-05-10T07:44:49;35.57;;;14.53;;
34060;SDS011;20336;-33.424;-70.638;2023-05-10T07:47:16;36.50;;;14.37;;
34060;SDS011;20336;-33.424;-70.638;2023-05-10T07:49:43;36.87;;;14.13;;
34060;SDS011;20336;-33.424;-70.638;2023-05-10T07:52:10;37.63;;;14.53;;
34060;SDS011;20336;-33.424;-70.638;2023-05-10T07:54:37;37.90;;;15.33;;
34060;SDS011;20336;-33.424;-70.638;2023-05-10T07:57:03;33.90;;;13.97;;
34060;SDS011;20336;-33.424;-70.638;2023-05-10T07:59:31;38.00;;;14.40;;
34060;SDS011;20336;-33.424;-70.638;2023-05-10T08:01:58;40.03;;;14.93;;
34060;SDS011;20336;-33.424;-70.638;2023-05-10T08:04:26;43.63;;;15.13;;
34060;SDS011;20336;-33.424;-70.638;2023-05-10T08:06:52;40.00;;;16.57;;
34060;SDS011;20336;-33.424;-70.638;2023-05-10T08:09:19;42.07;;;16.23;;
34060;SDS011;20336;-33.424;-70.638;2023-05-10T08:11:49;38.17;;;15.57;;
34060;SDS011;20336;-33.424;-70.638;2023-05-10T08:14:16;47.17;;;16.00;;
34060;SDS011;20336;-33.424;-70.638;2023-05-10T08:16:43;41.57;;;16.40;;
34060;SDS011;20336;-33.424;-70.638;2023-05-10T08:19:10;40.90;;;15.73;;
34060;SDS011;20336;-33.424;-70.638;2023-05-10T08:21:37;44.97;;;17.97;;
34060;SDS011;20336;-33.424;-70.638;2023-05-10T08:24:05;35.37;;;15.53;;
34060;SDS011;20336;-33.424;-70.638;2023-05-10T08:26:33;40.40;;;16.03;;
34060;SDS011;20336;-33.424;-70.638;2023-05-10T08:29:00;32.97;;;14.90;;
34060;SDS011;20336;-33.424;-70.638;2023-05-10T08:31:27;35.90;;;14.90;;
34060;SDS011;20336;-33.424;-70.638;2023-05-10T08:33:53;33.60;;;14.50;;
34060;SDS011;20336;-33.424;-70.638;2023-05-10T08:36:20;32.27;;;13.50;;
34060;SDS011;20336;-33.424;-70.638;2023-05-10T08:38:52;40.37;;;16.00;;
34060;SDS011;20336;-33.424;-70.638;2023-05-10T08:41:20;37.47;;;15.20;;
34060;SDS011;20336;-33.424;-70.638;2023-05-10T08:43:47;40.57;;;15.83;;
34060;SDS011;20336;-33.424;-70.638;2023-05-10T08:46:15;32.23;;;14.33;;
34060;SDS011;20336;-33.424;-70.638;2023-05-10T08:48:45;35.87;;;13.70;;
34060;SDS011;20336;-33.424;-70.638;2023-05-10T08:51:13;37.23;;;12.97;;
34060;SDS011;20336;-33.424;-70.638;2023-05-10T08:53:40;34.47;;;13.30;;
34060;SDS011;20336;-33.424;-70.638;2023-05-10T08:56:07;30.07;;;12.43;;
34060;SDS011;20336;-33.424;-70.638;2023-05-10T08:58:34;43.80;;;18.87;;
34060;SDS011;20336;-33.424;-70.638;2023-05-10T09:01:02;57.13;;;28.13;;
34060;SDS011;20336;-33.424;-70.638;2023-05-10T09:03:29;128.03;;;61.03;;
34060;SDS011;20336;-33.424;-70.638;2023-05-10T09:05:56;236.77;;;124.50;;
34060;SDS011;20336;-33.424;-70.638;2023-05-10T09:08:23;259.07;;;140.93;;
34060;SDS011;20336;-33.424;-70.638;2023-05-10T09:10:56;173.50;;;95.30;;
34060;SDS011;20336;-33.424;-70.638;2023-05-10T09:13:23;137.80;;;71.07;;
34060;SDS011;20336;-33.424;-70.638;2023-05-10T09:15:50;115.87;;;61.83;;
34060;SDS011;20336;-33.424;-70.638;2023-05-10T09:18:17;153.53;;;77.43;;
34060;SDS011;20336;-33.424;-70.638;2023-05-10T09:20:44;166.23;;;92.57;;
34060;SDS011;20336;-33.424;-70.638;2023-05-10T09:23:13;114.50;;;63.50;;
34060;SDS011;20336;-33.424;-70.638;2023-05-10T09:25:43;82.37;;;42.67;;
34060;SDS011;20336;-33.424;-70.638;2023-05-10T09:28:10;61.83;;;28.93;;
34060;SDS011;20336;-33.424;-70.638;2023-05-10T09:30:37;62.10;;;31.70;;
34060;SDS011;20336;-33.424;-70.638;2023-05-10T09:33:04;68.67;;;34.50;;
34060;SDS011;20336;-33.424;-70.638;2023-05-10T09:35:32;96.93;;;45.90;;
34060;SDS011;20336;-33.424;-70.638;2023-05-10T09:38:00;99.57;;;49.73;;
34060;SDS011;20336;-33.424;-70.638;2023-05-10T09:40:28;148.87;;;79.20;;
34060;SDS011;20336;-33.424;-70.638;2023-05-10T09:42:56;158.60;;;87.97;;
34060;SDS011;20336;-33.424;-70.638;2023-05-10T09:45:24;123.00;;;64.90;;
34060;SDS011;20336;-33.424;-70.638;2023-05-10T09:47:51;85.37;;;44.30;;
34060;SDS011;20336;-33.424;-70.638;2023-05-10T09:50:18;79.83;;;40.33;;
34060;SDS011;20336;-33.424;-70.638;2023-05-10T09:52:53;73.93;;;36.33;;
34060;SDS011;20336;-33.424;-70.638;2023-05-10T09:55:21;64.43;;;33.13;;
34060;SDS011;20336;-33.424;-70.638;2023-05-10T09:57:48;58.33;;;28.33;;
34060;SDS011;20336;-33.424;-70.638;2023-05-10T10:00:18;57.23;;;28.87;;
34060;SDS011;20336;-33.424;-70.638;2023-05-10T10:02:46;56.10;;;26.30;;
34060;SDS011;20336;-33.424;-70.638;2023-05-10T10:05:14;61.90;;;28.40;;
34060;SDS011;20336;-33.424;-70.638;2023-05-10T10:07:41;78.43;;;31.73;;
34060;SDS011;20336;-33.424;-70.638;2023-05-10T10:10:08;53.43;;;22.50;;
34060;SDS011;20336;-33.424;-70.638;2023-05-10T10:12:38;40.83;;;20.17;;
34060;SDS011;20336;-33.424;-70.638;2023-05-10T10:15:06;42.30;;;18.53;;
34060;SDS011;20336;-33.424;-70.638;2023-05-10T10:17:33;39.97;;;19.23;;
34060;SDS011;20336;-33.424;-70.638;2023-05-10T10:20:03;47.27;;;22.63;;
34060;SDS011;20336;-33.424;-70.638;2023-05-10T10:22:30;49.43;;;24.60;;
34060;SDS011;20336;-33.424;-70.638;2023-05-10T10:24:57;56.33;;;29.47;;
34060;SDS011;20336;-33.424;-70.638;2023-05-10T10:27:36;63.87;;;33.67;;
34060;SDS011;20336;-33.424;-70.638;2023-05-10T10:30:10;60.97;;;32.80;;
34060;SDS011;20336;-33.424;-70.638;2023-05-10T10:35:27;70.70;;;36.87;;
34060;SDS011;20336;-33.424;-70.638;2023-05-10T10:37:54;59.77;;;33.37;;
34060;SDS011;20336;-33.424;-70.638;2023-05-10T10:40:28;51.73;;;24.97;;
34060;SDS011;20336;-33.424;-70.638;2023-05-10T10:42:55;48.23;;;24.53;;
34060;SDS011;20336;-33.424;-70.638;2023-05-10T10:45:23;48.87;;;24.57;;
34060;SDS011;20336;-33.424;-70.638;2023-05-10T10:50:45;65.50;;;30.60;;
34060;SDS011;20336;-33.424;-70.638;2023-05-10T10:53:12;55.73;;;29.00;;
34060;SDS011;20336;-33.424;-70.638;2023-05-10T10:55:46;68.07;;;32.63;;
34060;SDS011;20336;-33.424;-70.638;2023-05-10T10:58:34;67.67;;;34.73;;
34060;SDS011;20336;-33.424;-70.638;2023-05-10T11:01:33;66.83;;;32.03;;
34060;SDS011;20336;-33.424;-70.638;2023-05-10T11:06:30;59.53;;;32.27;;
34060;SDS011;20336;-33.424;-70.638;2023-05-10T11:09:10;68.27;;;35.73;;
34060;SDS011;20336;-33.424;-70.638;2023-05-10T11:11:53;71.80;;;37.57;;
34060;SDS011;20336;-33.424;-70.638;2023-05-10T11:14:23;72.90;;;35.23;;
34060;SDS011;20336;-33.424;-70.638;2023-05-10T11:16:50;61.83;;;32.87;;
34060;SDS011;20336;-33.424;-70.638;2023-05-10T11:19:17;55.97;;;28.00;;
34060;SDS011;20336;-33.424;-70.638;2023-05-10T11:21:45;54.33;;;24.60;;
34060;SDS011;20336;-33.424;-70.638;2023-05-10T11:24:14;59.67;;;29.53;;
34060;SDS011;20336;-33.424;-70.638;2023-05-10T11:26:41;100.73;;;52.00;;
34060;SDS011;20336;-33.424;-70.638;2023-05-10T11:29:08;123.47;;;60.47;;
34060;SDS011;20336;-33.424;-70.638;2023-05-10T11:31:35;100.93;;;52.07;;
34060;SDS011;20336;-33.424;-70.638;2023-05-10T11:34:09;89.90;;;43.27;;
34060;SDS011;20336;-33.424;-70.638;2023-05-10T11:36:36;86.87;;;41.00;;
34060;SDS011;20336;-33.424;-70.638;2023-05-10T11:39:03;75.10;;;39.20;;
34060;SDS011;20336;-33.424;-70.638;2023-05-10T11:41:31;83.53;;;39.83;;
34060;SDS011;20336;-33.424;-70.638;2023-05-10T11:43:58;71.93;;;38.90;;
34060;SDS011;20336;-33.424;-70.638;2023-05-10T11:46:25;71.80;;;38.73;;
34060;SDS011;20336;-33.424;-70.638;2023-05-10T11:48:53;86.60;;;45.63;;
34060;SDS011;20336;-33.424;-70.638;2023-05-10T11:51:21;79.37;;;39.37;;
34060;SDS011;20336;-33.424;-70.638;2023-05-10T11:53:49;90.97;;;45.40;;
34060;SDS011;20336;-33.424;-70.638;2023-05-10T11:56:16;111.47;;;56.03;;
34060;SDS011;20336;-33.424;-70.638;2023-05-10T11:58:43;75.40;;;35.83;;
34060;SDS011;20336;-33.424;-70.638;2023-05-10T12:01:12;100.80;;;48.90;;
34060;SDS011;20336;-33.424;-70.638;2023-05-10T12:03:39;120.27;;;51.43;;
34060;SDS011;20336;-33.424;-70.638;2023-05-10T12:06:06;186.57;;;87.40;;
34060;SDS011;20336;-33.424;-70.638;2023-05-10T12:08:33;137.17;;;65.70;;
34060;SDS011;20336;-33.424;-70.638;2023-05-10T12:11:07;162.00;;;79.50;;
34060;SDS011;20336;-33.424;-70.638;2023-05-10T12:13:39;133.43;;;65.10;;
34060;SDS011;20336;-33.424;-70.638;2023-05-10T12:16:18;156.57;;;74.43;;
34060;SDS011;20336;-33.424;-70.638;2023-05-10T12:18:52;120.50;;;57.70;;
34060;SDS011;20336;-33.424;-70.638;2023-05-10T12:21:20;100.60;;;49.97;;
34060;SDS011;20336;-33.424;-70.638;2023-05-10T12:23:49;92.87;;;44.50;;
34060;SDS011;20336;-33.424;-70.638;2023-05-10T12:26:16;77.40;;;34.80;;
34060;SDS011;20336;-33.424;-70.638;2023-05-10T12:28:43;65.37;;;32.83;;
34060;SDS011;20336;-33.424;-70.638;2023-05-10T12:31:10;74.13;;;34.43;;
34060;SDS011;20336;-33.424;-70.638;2023-05-10T12:33:37;69.50;;;35.17;;
34060;SDS011;20336;-33.424;-70.638;2023-05-10T12:36:05;73.37;;;32.63;;
34060;SDS011;20336;-33.424;-70.638;2023-05-10T12:38:33;55.30;;;25.93;;
34060;SDS011;20336;-33.424;-70.638;2023-05-10T12:41:04;62.87;;;26.80;;
34060;SDS011;20336;-33.424;-70.638;2023-05-10T12:43:31;60.83;;;28.00;;
34060;SDS011;20336;-33.424;-70.638;2023-05-10T12:45:58;60.53;;;27.13;;
34060;SDS011;20336;-33.424;-70.638;2023-05-10T12:48:30;60.57;;;28.53;;
34060;SDS011;20336;-33.424;-70.638;2023-05-10T12:50:59;51.40;;;25.30;;
34060;SDS011;20336;-33.424;-70.638;2023-05-10T12:53:26;61.47;;;26.50;;
34060;SDS011;20336;-33.424;-70.638;2023-05-10T12:55:53;57.00;;;24.63;;
34060;SDS011;20336;-33.424;-70.638;2023-05-10T12:58:20;53.67;;;24.23;;
34060;SDS011;20336;-33.424;-70.638;2023-05-10T13:00:47;53.83;;;25.43;;
34060;SDS011;20336;-33.424;-70.638;2023-05-10T13:03:14;58.60;;;22.73;;
34060;SDS011;20336;-33.424;-70.638;2023-05-10T13:05:41;55.43;;;23.80;;
34060;SDS011;20336;-33.424;-70.638;2023-05-10T13:08:07;55.47;;;21.63;;
34060;SDS011;20336;-33.424;-70.638;2023-05-10T13:10:34;47.75;;;20.48;;
34060;SDS011;20336;-33.424;-70.638;2023-05-10T13:13:01;49.72;;;19.15;;
34060;SDS011;20336;-33.424;-70.638;2023-05-10T13:15:28;52.35;;;20.52;;
34060;SDS011;20336;-33.424;-70.638;2023-05-10T13:17:55;50.38;;;22.50;;
34060;SDS011;20336;-33.424;-70.638;2023-05-10T13:20:22;45.05;;;20.17;;
34060;SDS011;20336;-33.424;-70.638;2023-05-10T13:22:49;43.15;;;19.55;;
34060;SDS011;20336;-33.424;-70.638;2023-05-10T13:25:16;47.88;;;20.50;;
34060;SDS011;20336;-33.424;-70.638;2023-05-10T13:27:43;41.40;;;19.80;;
34060;SDS011;20336;-33.424;-70.638;2023-05-10T13:30:10;53.63;;;21.05;;
34060;SDS011;20336;-33.424;-70.638;2023-05-10T13:32:37;45.22;;;20.05;;
34060;SDS011;20336;-33.424;-70.638;2023-05-10T13:35:05;51.75;;;20.73;;
34060;SDS011;20336;-33.424;-70.638;2023-05-10T13:37:32;47.20;;;20.27;;
34060;SDS011;20336;-33.424;-70.638;2023-05-10T13:40:02;49.28;;;20.38;;
34060;SDS011;20336;-33.424;-70.638;2023-05-10T13:42:29;49.95;;;21.00;;
34060;SDS011;20336;-33.424;-70.638;2023-05-10T13:44:59;45.15;;;20.10;;
34060;SDS011;20336;-33.424;-70.638;2023-05-10T13:47:29;41.75;;;17.92;;
34060;SDS011;20336;-33.424;-70.638;2023-05-10T13:49:56;42.55;;;17.83;;
34060;SDS011;20336;-33.424;-70.638;2023-05-10T13:52:23;46.50;;;20.35;;
34060;SDS011;20336;-33.424;-70.638;2023-05-10T13:54:50;50.65;;;19.48;;
34060;SDS011;20336;-33.424;-70.638;2023-05-10T13:57:20;53.55;;;22.67;;
34060;SDS011;20336;-33.424;-70.638;2023-05-10T13:59:47;57.10;;;22.55;;
34060;SDS011;20336;-33.424;-70.638;2023-05-10T14:02:14;56.55;;;23.15;;
34060;SDS011;20336;-33.424;-70.638;2023-05-10T14:04:41;57.38;;;23.75;;
34060;SDS011;20336;-33.424;-70.638;2023-05-10T14:07:07;62.05;;;25.42;;
34060;SDS011;20336;-33.424;-70.638;2023-05-10T14:09:34;55.08;;;25.15;;
34060;SDS011;20336;-33.424;-70.638;2023-05-10T14:12:01;54.28;;;25.23;;
34060;SDS011;20336;-33.424;-70.638;2023-05-10T14:14:28;55.20;;;25.08;;
34060;SDS011;20336;-33.424;-70.638;2023-05-10T14:16:55;63.10;;;26.98;;
34060;SDS011;20336;-33.424;-70.638;2023-05-10T14:19:22;61.15;;;25.60;;
34060;SDS011;20336;-33.424;-70.638;2023-05-10T14:21:49;51.53;;;25.20;;